North Platte, Nebraska
Current Conditions -  °F | °C
As of 11:53 AM on Tuesday 21 Oct 2014 (Local Time) from KLBF Reporting Station
Clear Clear  
Wind Chill: 68°   Ceiling: Unl
Heat Index: 68°   Visibility: 10mi
Dew Point: 53°   Wind: 18mph
Humidity: 59%   Direction: 170°S
Pressure: 30.03"   Gusts: NA
Location:  41.14°N, 100.76°W
Report Text: KLBF 211653Z AUTO 17016KT 10SM CLR 20/12 A3003 RMK AO2 SLP154 T02000117
Loading
Personal Weather Stations






























Interactive Weather Map
Tropical Storm Tracking
New forecast layout! Learn more

10-Day Weather Forecast

Advertisements
Track Severe Weather on mobile